createdAt,value
2018-12-29T00:03:33.454Z,14.45
2018-12-29T00:06:15.977Z,14.83
2018-12-29T00:08:58.668Z,17.65
2018-12-29T00:11:42.482Z,16.42
2018-12-29T00:14:25.104Z,18.23
2018-12-29T00:17:08.565Z,14.43
2018-12-29T00:19:50.539Z,17.80
2018-12-29T00:22:33.747Z,17.07
2018-12-29T00:25:16.459Z,14.05
2018-12-29T00:27:59.037Z,21.57
2018-12-29T00:30:41.962Z,17.35
2018-12-29T00:33:25.152Z,17.42
2018-12-29T00:36:07.808Z,15.25
2018-12-29T00:38:50.304Z,17.67
2018-12-29T00:41:33.023Z,17.95
2018-12-29T00:44:14.876Z,19.77
2018-12-29T00:46:57.343Z,18.75
2018-12-29T00:49:39.802Z,17.45
2018-12-29T00:52:21.757Z,17.70
2018-12-29T00:55:04.615Z,17.98
2018-12-29T00:57:47.067Z,19.23
2018-12-29T01:00:29.751Z,23.47
2018-12-29T01:03:12.389Z,13.75
2018-12-29T01:05:54.804Z,20.52
2018-12-29T01:08:37.359Z,18.25
2018-12-29T01:11:19.963Z,18.35
2018-12-29T01:14:03.433Z,16.02
2018-12-29T01:16:45.912Z,15.98
2018-12-29T01:19:28.540Z,21.12
2018-12-29T01:22:10.802Z,20.55
2018-12-29T01:24:53.487Z,18.67
2018-12-29T01:27:37.047Z,21.05
2018-12-29T01:30:19.579Z,19.50
2018-12-29T01:33:01.888Z,23.95
2018-12-29T01:35:44.593Z,17.90
2018-12-29T01:38:27.224Z,22.48
2018-12-29T01:41:09.116Z,19.95
2018-12-29T01:43:51.629Z,23.73
2018-12-29T01:46:34.424Z,22.27
2018-12-29T01:49:16.952Z,17.35
2018-12-29T01:51:59.563Z,18.87
2018-12-29T01:54:42.133Z,20.97
2018-12-29T01:57:24.735Z,21.05
2018-12-29T02:00:07.290Z,23.52
2018-12-29T02:02:49.949Z,21.82
2018-12-29T02:05:32.523Z,20.80
2018-12-29T02:08:15.056Z,22.40
2018-12-29T02:10:57.804Z,20.57
2018-12-29T02:13:40.361Z,21.57
2018-12-29T02:16:22.588Z,21.50
2018-12-29T02:19:05.302Z,22.75
2018-12-29T02:21:47.964Z,20.90
2018-12-29T02:24:30.710Z,21.93
2018-12-29T02:27:14.196Z,22.32
2018-12-29T02:29:56.872Z,25.77
2018-12-29T02:32:39.266Z,20.75
2018-12-29T02:35:21.049Z,21.77
2018-12-29T02:38:03.688Z,21.70
2018-12-29T02:40:46.303Z,21.12
2018-12-29T02:43:28.967Z,22.37
2018-12-29T02:46:11.509Z,21.48
2018-12-29T02:48:53.969Z,20.25
2018-12-29T02:51:36.772Z,25.97
2018-12-29T02:54:19.420Z,29.15
2018-12-29T02:57:01.992Z,26.62
2018-12-29T02:59:45.170Z,26.15
2018-12-29T03:02:28.039Z,27.75
2018-12-29T03:05:10.560Z,25.35
2018-12-29T03:07:52.697Z,30.02
2018-12-29T03:10:35.085Z,26.02
2018-12-29T03:13:17.142Z,26.37
2018-12-29T03:15:59.717Z,25.77
2018-12-29T03:18:42.433Z,23.80
2018-12-29T03:21:24.743Z,24.45
2018-12-29T03:24:07.356Z,25.48
2018-12-29T03:26:49.772Z,26.07
2018-12-29T03:29:32.236Z,33.48
2018-12-29T03:32:14.627Z,28.23
2018-12-29T03:34:57.407Z,30.15
2018-12-29T03:37:39.955Z,28.75
2018-12-29T03:40:22.657Z,33.00
2018-12-29T03:43:05.132Z,30.75
2018-12-29T03:45:49.261Z,33.42
2018-12-29T03:48:31.494Z,28.87
2018-12-29T03:51:13.956Z,32.83
2018-12-29T03:53:58.453Z,26.95
2018-12-29T03:56:41.199Z,28.10
2018-12-29T03:59:23.867Z,29.30
2018-12-29T04:02:06.369Z,29.30
2018-12-29T04:04:48.769Z,31.07
2018-12-29T04:07:32.093Z,30.20
2018-12-29T04:10:14.586Z,32.35
2018-12-29T04:12:57.393Z,32.48
2018-12-29T04:15:39.971Z,32.17
2018-12-29T04:18:22.429Z,28.07
2018-12-29T04:21:04.983Z,34.73
2018-12-29T04:23:47.689Z,29.25
2018-12-29T04:26:30.418Z,30.92
2018-12-29T04:29:13.124Z,29.48
2018-12-29T04:31:55.876Z,35.00
2018-12-29T04:34:38.312Z,32.70
2018-12-29T04:37:20.665Z,34.08
2018-12-29T04:40:03.109Z,29.27
2018-12-29T04:42:45.951Z,33.05
2018-12-29T04:45:28.313Z,29.55
2018-12-29T04:48:10.620Z,32.03
2018-12-29T04:50:52.613Z,38.02
2018-12-29T04:53:35.156Z,32.10
2018-12-29T04:56:17.265Z,28.65
2018-12-29T04:58:59.448Z,29.67
2018-12-29T05:01:41.379Z,28.27
2018-12-29T05:04:23.804Z,34.48
2018-12-29T05:07:06.124Z,32.15
2018-12-29T05:09:48.644Z,29.75
2018-12-29T05:12:31.511Z,31.70
2018-12-29T05:15:13.813Z,29.57
2018-12-29T05:17:56.433Z,29.95
2018-12-29T05:20:38.883Z,31.40
2018-12-29T05:23:21.414Z,35.17
2018-12-29T05:26:02.981Z,30.40
2018-12-29T05:28:44.742Z,30.27
2018-12-29T05:31:27.235Z,29.05
2018-12-29T05:34:09.653Z,27.37
2018-12-29T05:36:52.139Z,29.27
2018-12-29T05:39:34.268Z,26.42
2018-12-29T05:42:16.792Z,25.57
2018-12-29T05:45:03.787Z,32.35
2018-12-29T05:47:45.659Z,29.55
2018-12-29T05:50:27.998Z,31.05
2018-12-29T05:53:10.488Z,26.62
2018-12-29T05:55:54.145Z,30.52
2018-12-29T05:58:36.780Z,29.77
2018-12-29T06:01:19.348Z,30.48
2018-12-29T06:04:01.625Z,23.47
2018-12-29T06:06:44.114Z,21.77
2018-12-29T06:09:26.296Z,21.75
2018-12-29T06:12:09.058Z,22.85
2018-12-29T06:14:51.800Z,23.57
2018-12-29T06:17:33.948Z,23.92
2018-12-29T06:20:16.672Z,22.65
2018-12-29T06:22:59.299Z,19.67
2018-12-29T06:25:42.044Z,17.80
2018-12-29T06:28:24.475Z,19.60
2018-12-29T06:31:07.020Z,16.55
2018-12-29T06:33:49.548Z,16.10
2018-12-29T06:36:32.313Z,18.02
2018-12-29T06:39:18.847Z,19.37
2018-12-29T06:42:01.613Z,21.48
2018-12-29T06:44:44.240Z,21.97
2018-12-29T06:47:26.583Z,19.80
2018-12-29T06:50:10.884Z,16.62
2018-12-29T06:52:53.381Z,23.30
2018-12-29T06:55:36.995Z,20.52
2018-12-29T06:58:19.743Z,16.57
2018-12-29T07:01:02.141Z,18.70
2018-12-29T07:03:46.712Z,22.00
2018-12-29T07:06:30.799Z,16.48
2018-12-29T07:09:13.343Z,23.65
2018-12-29T07:11:56.084Z,20.17
2018-12-29T07:14:38.734Z,17.17
2018-12-29T07:17:21.310Z,19.73
2018-12-29T07:20:03.880Z,15.70
2018-12-29T07:22:46.651Z,19.90
2018-12-29T07:25:29.345Z,17.10
2018-12-29T07:28:12.170Z,17.87
2018-12-29T07:30:54.748Z,17.80
2018-12-29T07:33:37.471Z,16.05
2018-12-29T07:36:19.968Z,18.55
2018-12-29T07:39:02.762Z,16.82
2018-12-29T07:41:45.315Z,16.97
2018-12-29T07:44:27.173Z,19.77
2018-12-29T07:47:09.712Z,18.90
2018-12-29T07:49:52.437Z,17.10
2018-12-29T07:52:34.297Z,16.32
2018-12-29T07:55:17.204Z,15.98
2018-12-29T07:57:59.461Z,16.70
2018-12-29T08:00:41.987Z,20.40
2018-12-29T08:03:24.447Z,15.20
2018-12-29T08:06:07.177Z,16.00
2018-12-29T08:08:49.850Z,16.93
2018-12-29T08:11:32.467Z,17.82
2018-12-29T08:14:15.124Z,20.08
2018-12-29T08:16:57.703Z,17.15
2018-12-29T08:19:40.301Z,18.17
2018-12-29T08:22:24.070Z,18.90
2018-12-29T08:25:06.374Z,16.12
2018-12-29T08:27:49.096Z,17.50
2018-12-29T08:30:31.550Z,17.23
2018-12-29T08:33:14.030Z,19.23
2018-12-29T08:35:56.490Z,17.35
2018-12-29T08:38:39.256Z,19.67
2018-12-29T08:41:21.808Z,19.00
2018-12-29T08:44:04.256Z,16.55
2018-12-29T08:46:46.556Z,18.25
2018-12-29T08:49:28.667Z,17.42
2018-12-29T08:52:10.950Z,17.85
2018-12-29T08:54:53.448Z,18.15
2018-12-29T08:57:36.012Z,17.30
2018-12-29T09:00:18.604Z,17.75
2018-12-29T09:03:02.041Z,17.92
2018-12-29T09:05:44.691Z,20.40
2018-12-29T09:08:27.132Z,15.68
2018-12-29T09:11:09.825Z,16.23
2018-12-29T09:13:52.306Z,13.35
2018-12-29T09:16:34.851Z,17.23
2018-12-29T09:19:17.094Z,13.88
2018-12-29T09:21:59.748Z,19.40
2018-12-29T09:24:42.351Z,15.03
2018-12-29T09:27:25.120Z,11.68
2018-12-29T09:30:07.551Z,14.78
2018-12-29T09:32:50.143Z,15.43
2018-12-29T09:35:32.751Z,19.12
2018-12-29T09:38:15.195Z,16.87
2018-12-29T09:40:57.795Z,11.95
2018-12-29T09:43:40.277Z,15.00
2018-12-29T09:46:22.452Z,10.38
2018-12-29T09:49:05.038Z,10.58
2018-12-29T09:51:47.644Z,11.50
2018-12-29T09:54:29.940Z,13.20
2018-12-29T09:57:12.583Z,13.50
2018-12-29T09:59:55.309Z,13.18
2018-12-29T10:02:37.736Z,12.13
2018-12-29T10:05:20.574Z,12.33
2018-12-29T10:08:04.425Z,10.23
2018-12-29T10:10:46.624Z,13.45
2018-12-29T10:13:29.228Z,13.45
2018-12-29T10:16:11.876Z,12.70
2018-12-29T10:18:54.266Z,17.67
2018-12-29T10:21:42.185Z,10.93
2018-12-29T10:24:24.792Z,16.07
2018-12-29T10:27:07.528Z,13.08
2018-12-29T10:29:49.645Z,10.65
2018-12-29T10:32:31.676Z,10.70
2018-12-29T10:35:14.327Z,11.73
2018-12-29T10:37:57.131Z,13.22
2018-12-29T10:40:39.754Z,11.73
2018-12-29T10:43:22.303Z,12.50
2018-12-29T10:46:05.508Z,11.05
2018-12-29T10:48:48.227Z,11.90
2018-12-29T10:51:31.748Z,14.47
2018-12-29T10:54:14.201Z,10.98
2018-12-29T10:56:56.003Z,10.28
2018-12-29T10:59:38.169Z,15.28
2018-12-29T11:02:20.507Z,10.63
2018-12-29T11:05:03.236Z,8.73
2018-12-29T11:07:45.751Z,8.75
2018-12-29T11:10:28.651Z,9.70
2018-12-29T11:13:10.699Z,11.73
2018-12-29T11:15:53.552Z,9.43
2018-12-29T11:18:36.057Z,12.18
2018-12-29T11:21:18.416Z,14.78
2018-12-29T11:24:01.232Z,14.40
2018-12-29T11:26:43.907Z,13.35
2018-12-29T11:29:26.341Z,12.15
2018-12-29T11:32:09.019Z,11.88
2018-12-29T11:34:51.519Z,8.90
2018-12-29T11:37:34.440Z,9.93
2018-12-29T11:40:16.961Z,15.35
2018-12-29T11:42:59.663Z,15.05
2018-12-29T11:45:42.145Z,14.40
2018-12-29T11:48:24.724Z,11.88
2018-12-29T11:51:06.945Z,12.68
2018-12-29T11:53:49.539Z,9.73
2018-12-29T11:56:32.243Z,14.30
2018-12-29T11:59:14.843Z,9.88
2018-12-29T12:01:57.571Z,13.25
2018-12-29T12:04:40.140Z,16.82
2018-12-29T12:07:22.751Z,12.15
2018-12-29T12:10:05.608Z,14.28
2018-12-29T12:12:48.243Z,12.20
2018-12-29T12:15:31.956Z,15.35
2018-12-29T12:18:13.875Z,15.90
2018-12-29T12:20:56.161Z,15.85
2018-12-29T12:23:38.627Z,15.95
2018-12-29T12:26:21.306Z,17.40
2018-12-29T12:29:03.276Z,15.23
2018-12-29T12:31:45.976Z,17.95
2018-12-29T12:34:28.916Z,14.40
2018-12-29T12:37:11.931Z,15.93
2018-12-29T12:39:54.448Z,14.93
2018-12-29T12:42:36.859Z,16.95
2018-12-29T12:45:18.709Z,13.03
2018-12-29T12:48:05.017Z,11.65
2018-12-29T12:50:44.628Z,15.70
2018-12-29T12:53:26.796Z,13.45
2018-12-29T12:56:09.527Z,13.95
2018-12-29T12:58:52.188Z,16.55
2018-12-29T13:01:35.208Z,20.57
2018-12-29T13:04:18.026Z,18.23
2018-12-29T13:06:59.843Z,19.90
2018-12-29T13:09:42.671Z,21.15
2018-12-29T13:12:25.613Z,16.30
2018-12-29T13:15:08.353Z,14.75
2018-12-29T13:17:50.632Z,14.90
2018-12-29T13:20:33.284Z,14.20
2018-12-29T13:23:16.015Z,15.85
2018-12-29T13:25:58.256Z,14.28
2018-12-29T13:28:40.928Z,17.75
2018-12-29T13:31:23.475Z,12.37
2018-12-29T13:34:06.213Z,16.32
2018-12-29T13:36:48.703Z,18.67
2018-12-29T13:39:30.644Z,16.20
2018-12-29T13:42:19.295Z,18.23
2018-12-29T13:45:02.648Z,18.45
2018-12-29T13:47:46.196Z,19.75
2018-12-29T13:50:30.812Z,11.78
2018-12-29T13:53:13.477Z,17.15
2018-12-29T13:55:55.891Z,16.02
2018-12-29T13:58:38.308Z,26.93
2018-12-29T14:01:22.061Z,36.35
2018-12-29T14:04:04.564Z,18.02
2018-12-29T14:06:47.163Z,56.45
2018-12-29T14:09:29.794Z,52.73
2018-12-29T14:12:12.164Z,29.92
2018-12-29T14:14:55.195Z,58.73
2018-12-29T14:17:38.195Z,59.70
2018-12-29T14:20:21.024Z,24.50
2018-12-29T14:23:03.587Z,28.55
2018-12-29T14:25:46.494Z,50.88
2018-12-29T14:28:38.205Z,22.93
2018-12-29T14:31:33.873Z,23.67
2018-12-29T14:34:16.799Z,30.88
2018-12-29T14:36:58.668Z,19.55
2018-12-29T14:39:41.315Z,16.30
2018-12-29T14:42:23.571Z,21.73
2018-12-29T14:45:06.394Z,23.45
2018-12-29T14:47:49.029Z,17.62
2018-12-29T14:50:31.632Z,20.00
2018-12-29T14:53:13.650Z,16.70
2018-12-29T14:55:56.273Z,11.68
2018-12-29T14:58:38.929Z,16.42
2018-12-29T15:01:21.456Z,13.45
2018-12-29T15:04:04.107Z,13.48
2018-12-29T15:06:46.635Z,22.42
2018-12-29T15:09:29.491Z,15.28
2018-12-29T15:12:12.198Z,16.90
2018-12-29T15:14:54.523Z,14.45
2018-12-29T15:17:37.102Z,11.68
2018-12-29T15:20:21.068Z,13.72
2018-12-29T15:23:03.636Z,13.83
2018-12-29T15:25:46.264Z,10.50
2018-12-29T15:28:28.727Z,15.10
2018-12-29T15:31:11.301Z,14.53
2018-12-29T15:33:53.733Z,14.23
2018-12-29T15:36:36.561Z,9.13
2018-12-29T15:39:19.218Z,8.35
2018-12-29T15:42:02.091Z,11.08
2018-12-29T15:44:44.591Z,10.85
2018-12-29T15:47:27.287Z,9.48
2018-12-29T15:50:09.688Z,10.40
2018-12-29T15:52:52.283Z,8.33
2018-12-29T15:55:34.540Z,10.03
2018-12-29T15:58:17.106Z,8.13
2018-12-29T16:00:59.700Z,14.25
2018-12-29T16:03:42.392Z,9.00
2018-12-29T16:06:26.087Z,9.13
2018-12-29T16:09:08.367Z,8.18
2018-12-29T16:11:51.450Z,10.38
2018-12-29T16:14:35.495Z,9.83
2018-12-29T16:17:16.922Z,8.40
2018-12-29T16:19:59.946Z,11.70
2018-12-29T16:22:41.722Z,9.80
2018-12-29T16:25:24.297Z,9.53
2018-12-29T16:28:06.610Z,16.45
2018-12-29T16:30:49.076Z,13.05
2018-12-29T16:33:31.636Z,14.20
2018-12-29T16:36:14.107Z,16.97
2018-12-29T16:38:56.505Z,11.93
2018-12-29T16:41:39.158Z,16.60
2018-12-29T16:44:21.585Z,9.55
2018-12-29T16:47:04.323Z,15.23
2018-12-29T16:49:47.441Z,10.72
2018-12-29T16:52:30.367Z,13.13
2018-12-29T16:55:13.298Z,14.28
2018-12-29T16:57:55.243Z,17.42
2018-12-29T17:00:37.895Z,14.05
2018-12-29T17:03:20.436Z,14.07
2018-12-29T17:06:03.200Z,15.90
2018-12-29T17:08:45.990Z,11.93
2018-12-29T17:11:28.464Z,17.32
2018-12-29T17:14:12.799Z,14.43
2018-12-29T17:16:55.591Z,20.43
2018-12-29T17:19:38.238Z,14.53
2018-12-29T17:22:20.168Z,16.05
2018-12-29T17:25:02.721Z,15.83
2018-12-29T17:27:45.129Z,18.12
2018-12-29T17:30:27.868Z,21.90
2018-12-29T17:33:10.527Z,14.47
2018-12-29T17:35:54.344Z,18.82
2018-12-29T17:38:37.123Z,19.57
2018-12-29T17:41:19.775Z,14.45
2018-12-29T17:44:02.420Z,19.70
2018-12-29T17:46:46.169Z,20.72
2018-12-29T17:49:28.875Z,18.82
2018-12-29T17:52:11.160Z,17.05
2018-12-29T17:54:53.605Z,19.57
2018-12-29T17:57:36.208Z,17.20
2018-12-29T18:00:18.845Z,23.00
2018-12-29T18:03:01.236Z,23.45
2018-12-29T18:05:47.903Z,20.50
2018-12-29T18:08:30.605Z,27.30
2018-12-29T18:11:13.177Z,17.55
2018-12-29T18:16:55.991Z,13.25
2018-12-29T18:19:38.551Z,18.70
2018-12-29T18:22:20.907Z,14.40
2018-12-29T18:25:03.431Z,20.08
2018-12-29T18:27:45.949Z,15.38
2018-12-29T18:30:29.060Z,17.17
2018-12-29T18:33:11.916Z,17.12
2018-12-29T18:35:54.237Z,17.48
2018-12-29T18:38:37.428Z,16.75
2018-12-29T18:41:20.090Z,15.80
2018-12-29T18:44:02.566Z,10.98
2018-12-29T18:46:44.947Z,10.75
2018-12-29T18:49:27.759Z,15.30
2018-12-29T18:52:10.132Z,12.80
2018-12-29T18:54:52.651Z,14.53
2018-12-29T18:57:36.192Z,27.58
2018-12-29T19:00:19.688Z,18.70
2018-12-29T19:03:03.104Z,23.75
2018-12-29T19:05:45.709Z,20.70
2018-12-29T19:08:29.003Z,16.02
2018-12-29T19:11:15.583Z,23.15
2018-12-29T19:14:04.446Z,26.05
2018-12-29T19:16:46.580Z,17.32
2018-12-29T19:19:29.078Z,14.60
2018-12-29T19:22:11.731Z,22.02
2018-12-29T19:24:53.968Z,12.25
2018-12-29T19:27:40.815Z,12.68
2018-12-29T19:30:23.656Z,10.90
2018-12-29T19:33:06.343Z,11.22
2018-12-29T19:35:48.951Z,14.35
2018-12-29T19:38:31.964Z,19.85
2018-12-29T19:41:14.495Z,13.85
2018-12-29T19:43:57.240Z,14.50
2018-12-29T19:46:39.805Z,17.42
2018-12-29T19:49:22.587Z,17.73
2018-12-29T19:52:05.047Z,17.48
2018-12-29T19:54:47.351Z,32.33
2018-12-29T19:57:30.445Z,19.52
2018-12-29T20:00:13.124Z,24.72
2018-12-29T20:02:56.035Z,14.25
2018-12-29T20:05:43.727Z,21.68
2018-12-29T20:08:26.080Z,15.35
2018-12-29T20:11:09.383Z,15.68
2018-12-29T20:13:51.925Z,17.17
2018-12-29T20:16:34.542Z,15.98
2018-12-29T20:19:16.823Z,18.55
2018-12-29T20:21:59.579Z,18.25
2018-12-29T20:24:41.688Z,16.57
2018-12-29T20:27:23.893Z,16.10
2018-12-29T20:30:06.682Z,19.35
2018-12-29T20:32:48.600Z,18.25
2018-12-29T20:35:30.470Z,23.50
2018-12-29T20:38:13.131Z,20.55
2018-12-29T20:40:55.723Z,14.07
2018-12-29T20:43:38.464Z,15.65
2018-12-29T20:46:21.330Z,22.60
2018-12-29T20:49:05.001Z,19.52
2018-12-29T20:51:48.182Z,15.08
2018-12-29T20:54:32.773Z,25.92
2018-12-29T20:57:15.117Z,20.72
2018-12-29T20:59:57.623Z,21.07
2018-12-29T21:02:40.279Z,21.60
2018-12-29T21:05:22.462Z,20.62
2018-12-29T21:08:04.683Z,18.75
2018-12-29T21:10:49.154Z,17.45
2018-12-29T21:13:31.850Z,20.02
2018-12-29T21:16:14.715Z,21.35
2018-12-29T21:18:57.418Z,20.05
2018-12-29T21:21:40.361Z,18.05
2018-12-29T21:24:22.169Z,20.85
2018-12-29T21:27:05.507Z,22.07
2018-12-29T21:29:48.212Z,17.80
2018-12-29T21:32:30.966Z,20.45
2018-12-29T21:35:13.829Z,20.23
2018-12-29T21:37:56.086Z,21.10
2018-12-29T21:40:38.902Z,22.58
2018-12-29T21:43:21.639Z,22.82
2018-12-29T21:46:03.540Z,16.50
2018-12-29T21:48:46.359Z,23.60
2018-12-29T21:51:28.805Z,18.65
2018-12-29T21:54:11.526Z,20.80
2018-12-29T21:56:55.159Z,16.45
2018-12-29T21:59:37.583Z,16.90
2018-12-29T22:02:20.293Z,17.62
2018-12-29T22:05:02.718Z,17.62
2018-12-29T22:07:44.566Z,16.25
2018-12-29T22:10:26.447Z,17.77
2018-12-29T22:13:09.083Z,18.77
2018-12-29T22:15:51.882Z,21.60
2018-12-29T22:18:34.667Z,18.35
2018-12-29T22:21:17.466Z,18.35
2018-12-29T22:23:59.888Z,14.05
2018-12-29T22:26:42.463Z,14.05
2018-12-29T22:29:25.271Z,18.70
2018-12-29T22:32:07.671Z,18.90
2018-12-29T22:34:50.287Z,17.85
2018-12-29T22:37:32.852Z,20.88
2018-12-29T22:40:15.756Z,19.90
2018-12-29T22:42:58.203Z,17.15
2018-12-29T22:45:40.599Z,16.45
2018-12-29T22:48:22.574Z,18.60
2018-12-29T22:51:06.267Z,16.32
2018-12-29T22:53:48.683Z,16.48
2018-12-29T22:56:31.136Z,15.03
2018-12-29T22:59:13.668Z,14.25
2018-12-29T23:01:56.152Z,20.40
2018-12-29T23:04:38.701Z,18.50
2018-12-29T23:07:20.744Z,36.70
2018-12-29T23:10:03.552Z,17.25
2018-12-29T23:12:46.312Z,22.40
2018-12-29T23:15:28.519Z,18.95
2018-12-29T23:18:11.180Z,18.75
2018-12-29T23:20:53.831Z,21.77
2018-12-29T23:23:36.131Z,18.20
2018-12-29T23:26:18.835Z,18.85
2018-12-29T23:29:01.436Z,21.60
2018-12-29T23:31:43.668Z,18.25
2018-12-29T23:34:26.356Z,16.05
2018-12-29T23:37:08.383Z,19.20
2018-12-29T23:39:51.124Z,19.35
2018-12-29T23:42:33.901Z,16.17
2018-12-29T23:45:16.381Z,17.98
2018-12-29T23:47:58.815Z,16.97
2018-12-29T23:50:41.171Z,22.80
2018-12-29T23:53:23.680Z,15.45
2018-12-29T23:56:06.548Z,20.52
2018-12-29T23:58:50.090Z,22.55
